sensor_id;sensor_type;location;lat;lon;timestamp;P1;durP1;ratioP1;P2;durP2;ratioP2
49472;SDS011;67434;50.956;6.918;2023-03-01T00:01:22;12.27;;;5.93;;
49472;SDS011;67434;50.956;6.918;2023-03-01T00:03:52;9.98;;;5.55;;
49472;SDS011;67434;50.956;6.918;2023-03-01T00:06:18;10.88;;;6.03;;
49472;SDS011;67434;50.956;6.918;2023-03-01T00:08:44;7.38;;;4.20;;
49472;SDS011;67434;50.956;6.918;2023-03-01T00:11:29;8.35;;;4.82;;
49472;SDS011;67434;50.956;6.918;2023-03-01T00:13:57;7.40;;;4.40;;
49472;SDS011;67434;50.956;6.918;2023-03-01T00:16:29;8.68;;;4.50;;
49472;SDS011;67434;50.956;6.918;2023-03-01T00:19:23;12.02;;;4.97;;
49472;SDS011;67434;50.956;6.918;2023-03-01T00:21:49;9.68;;;4.63;;
49472;SDS011;67434;50.956;6.918;2023-03-01T00:24:14;11.00;;;4.78;;
49472;SDS011;67434;50.956;6.918;2023-03-01T00:26:40;10.18;;;5.43;;
49472;SDS011;67434;50.956;6.918;2023-03-01T00:29:06;7.72;;;5.05;;
49472;SDS011;67434;50.956;6.918;2023-03-01T00:31:32;8.45;;;4.53;;
49472;SDS011;67434;50.956;6.918;2023-03-01T00:33:59;9.32;;;4.30;;
49472;SDS011;67434;50.956;6.918;2023-03-01T00:36:28;7.65;;;3.95;;
49472;SDS011;67434;50.956;6.918;2023-03-01T00:38:55;9.23;;;4.55;;
49472;SDS011;67434;50.956;6.918;2023-03-01T00:41:21;15.18;;;5.05;;
49472;SDS011;67434;50.956;6.918;2023-03-01T00:43:48;9.43;;;4.35;;
49472;SDS011;67434;50.956;6.918;2023-03-01T00:46:15;9.13;;;4.63;;
49472;SDS011;67434;50.956;6.918;2023-03-01T00:48:43;8.45;;;3.90;;
49472;SDS011;67434;50.956;6.918;2023-03-01T00:53:36;10.82;;;5.25;;
49472;SDS011;67434;50.956;6.918;2023-03-01T00:56:02;12.65;;;5.40;;
49472;SDS011;67434;50.956;6.918;2023-03-01T00:58:29;11.85;;;4.38;;
49472;SDS011;67434;50.956;6.918;2023-03-01T01:00:55;8.50;;;4.63;;
49472;SDS011;67434;50.956;6.918;2023-03-01T01:03:21;6.50;;;3.95;;
49472;SDS011;67434;50.956;6.918;2023-03-01T01:05:46;8.02;;;4.60;;
49472;SDS011;67434;50.956;6.918;2023-03-01T01:08:30;10.43;;;4.95;;
49472;SDS011;67434;50.956;6.918;2023-03-01T01:10:56;8.88;;;4.80;;
49472;SDS011;67434;50.956;6.918;2023-03-01T01:13:21;11.18;;;5.03;;
49472;SDS011;67434;50.956;6.918;2023-03-01T01:15:46;6.43;;;4.22;;
49472;SDS011;67434;50.956;6.918;2023-03-01T01:18:30;8.85;;;4.05;;
49472;SDS011;67434;50.956;6.918;2023-03-01T01:20:55;6.95;;;4.05;;
49472;SDS011;67434;50.956;6.918;2023-03-01T01:23:21;9.07;;;4.57;;
49472;SDS011;67434;50.956;6.918;2023-03-01T01:25:46;8.27;;;4.32;;
49472;SDS011;67434;50.956;6.918;2023-03-01T01:28:11;10.52;;;4.45;;
49472;SDS011;67434;50.956;6.918;2023-03-01T01:30:37;9.05;;;5.10;;
49472;SDS011;67434;50.956;6.918;2023-03-01T01:33:02;8.15;;;4.45;;
49472;SDS011;67434;50.956;6.918;2023-03-01T01:35:27;9.48;;;4.88;;
49472;SDS011;67434;50.956;6.918;2023-03-01T01:37:53;10.25;;;4.85;;
49472;SDS011;67434;50.956;6.918;2023-03-01T01:40:18;9.38;;;4.78;;
49472;SDS011;67434;50.956;6.918;2023-03-01T01:42:43;9.27;;;5.18;;
49472;SDS011;67434;50.956;6.918;2023-03-01T01:45:28;10.05;;;4.78;;
49472;SDS011;67434;50.956;6.918;2023-03-01T01:48:03;8.98;;;5.30;;
49472;SDS011;67434;50.956;6.918;2023-03-01T01:50:32;10.18;;;5.38;;
49472;SDS011;67434;50.956;6.918;2023-03-01T01:53:08;10.55;;;5.40;;
49472;SDS011;67434;50.956;6.918;2023-03-01T01:55:51;7.95;;;4.38;;
49472;SDS011;67434;50.956;6.918;2023-03-01T01:58:19;9.85;;;5.00;;
49472;SDS011;67434;50.956;6.918;2023-03-01T02:00:46;8.93;;;4.82;;
49472;SDS011;67434;50.956;6.918;2023-03-01T02:03:14;9.82;;;5.05;;
49472;SDS011;67434;50.956;6.918;2023-03-01T02:05:47;8.43;;;4.57;;
49472;SDS011;67434;50.956;6.918;2023-03-01T02:08:19;9.35;;;4.75;;
49472;SDS011;67434;50.956;6.918;2023-03-01T02:10:46;9.20;;;4.32;;
49472;SDS011;67434;50.956;6.918;2023-03-01T02:13:13;9.82;;;4.85;;
49472;SDS011;67434;50.956;6.918;2023-03-01T02:15:39;8.50;;;4.60;;
49472;SDS011;67434;50.956;6.918;2023-03-01T02:18:24;10.18;;;5.35;;
49472;SDS011;67434;50.956;6.918;2023-03-01T02:23:25;9.80;;;4.55;;
49472;SDS011;67434;50.956;6.918;2023-03-01T02:25:52;9.10;;;4.78;;
49472;SDS011;67434;50.956;6.918;2023-03-01T02:28:29;10.10;;;5.10;;
49472;SDS011;67434;50.956;6.918;2023-03-01T02:30:56;13.60;;;5.97;;
49472;SDS011;67434;50.956;6.918;2023-03-01T02:33:40;10.38;;;5.45;;
49472;SDS011;67434;50.956;6.918;2023-03-01T02:36:08;9.40;;;5.55;;
49472;SDS011;67434;50.956;6.918;2023-03-01T02:38:38;10.52;;;5.20;;
49472;SDS011;67434;50.956;6.918;2023-03-01T02:41:05;7.18;;;4.88;;
49472;SDS011;67434;50.956;6.918;2023-03-01T02:43:32;11.77;;;5.38;;
49472;SDS011;67434;50.956;6.918;2023-03-01T02:45:59;10.02;;;4.88;;
49472;SDS011;67434;50.956;6.918;2023-03-01T02:48:51;7.75;;;4.90;;
49472;SDS011;67434;50.956;6.918;2023-03-01T02:52:22;10.15;;;5.13;;
49472;SDS011;67434;50.956;6.918;2023-03-01T02:54:51;12.38;;;4.68;;
49472;SDS011;67434;50.956;6.918;2023-03-01T02:57:43;8.82;;;5.03;;
49472;SDS011;67434;50.956;6.918;2023-03-01T03:00:13;10.93;;;5.68;;
49472;SDS011;67434;50.956;6.918;2023-03-01T03:02:44;7.50;;;3.80;;
49472;SDS011;67434;50.956;6.918;2023-03-01T03:05:12;9.85;;;5.18;;
49472;SDS011;67434;50.956;6.918;2023-03-01T03:07:44;12.63;;;5.35;;
49472;SDS011;67434;50.956;6.918;2023-03-01T03:10:30;9.52;;;4.40;;
49472;SDS011;67434;50.956;6.918;2023-03-01T03:13:04;13.93;;;6.68;;
49472;SDS011;67434;50.956;6.918;2023-03-01T03:15:47;8.57;;;5.00;;
49472;SDS011;67434;50.956;6.918;2023-03-01T03:18:14;12.80;;;5.20;;
49472;SDS011;67434;50.956;6.918;2023-03-01T03:20:41;11.15;;;5.38;;
49472;SDS011;67434;50.956;6.918;2023-03-01T03:23:08;8.95;;;5.45;;
49472;SDS011;67434;50.956;6.918;2023-03-01T03:25:33;9.63;;;5.20;;
49472;SDS011;67434;50.956;6.918;2023-03-01T03:28:02;10.52;;;5.53;;
49472;SDS011;67434;50.956;6.918;2023-03-01T03:30:34;9.70;;;4.65;;
49472;SDS011;67434;50.956;6.918;2023-03-01T03:33:04;7.05;;;4.35;;
49472;SDS011;67434;50.956;6.918;2023-03-01T03:35:31;9.07;;;5.10;;
49472;SDS011;67434;50.956;6.918;2023-03-01T03:37:59;10.88;;;5.72;;
49472;SDS011;67434;50.956;6.918;2023-03-01T03:40:46;10.95;;;4.63;;
49472;SDS011;67434;50.956;6.918;2023-03-01T03:43:14;10.20;;;5.45;;
49472;SDS011;67434;50.956;6.918;2023-03-01T03:45:45;9.05;;;4.45;;
49472;SDS011;67434;50.956;6.918;2023-03-01T03:48:30;10.50;;;5.55;;
49472;SDS011;67434;50.956;6.918;2023-03-01T03:50:55;11.07;;;5.45;;
49472;SDS011;67434;50.956;6.918;2023-03-01T03:53:22;7.35;;;4.53;;
49472;SDS011;67434;50.956;6.918;2023-03-01T03:55:48;10.98;;;5.25;;
49472;SDS011;67434;50.956;6.918;2023-03-01T03:58:32;16.67;;;5.22;;
49472;SDS011;67434;50.956;6.918;2023-03-01T04:00:59;10.35;;;6.18;;
49472;SDS011;67434;50.956;6.918;2023-03-01T04:03:26;8.30;;;5.10;;
49472;SDS011;67434;50.956;6.918;2023-03-01T04:05:53;8.98;;;5.05;;
49472;SDS011;67434;50.956;6.918;2023-03-01T04:08:19;12.48;;;5.68;;
49472;SDS011;67434;50.956;6.918;2023-03-01T04:10:47;10.43;;;4.75;;
49472;SDS011;67434;50.956;6.918;2023-03-01T04:13:18;10.57;;;5.45;;
49472;SDS011;67434;50.956;6.918;2023-03-01T04:15:46;10.40;;;5.35;;
49472;SDS011;67434;50.956;6.918;2023-03-01T04:18:16;10.18;;;5.20;;
49472;SDS011;67434;50.956;6.918;2023-03-01T04:20:44;8.65;;;5.28;;
49472;SDS011;67434;50.956;6.918;2023-03-01T04:23:14;13.50;;;5.18;;
49472;SDS011;67434;50.956;6.918;2023-03-01T04:25:47;10.88;;;5.05;;
49472;SDS011;67434;50.956;6.918;2023-03-01T04:28:18;9.85;;;5.18;;
49472;SDS011;67434;50.956;6.918;2023-03-01T04:30:57;13.15;;;6.15;;
49472;SDS011;67434;50.956;6.918;2023-03-01T04:33:43;10.52;;;5.55;;
49472;SDS011;67434;50.956;6.918;2023-03-01T04:38:54;11.57;;;5.57;;
49472;SDS011;67434;50.956;6.918;2023-03-01T04:41:20;11.25;;;4.93;;
49472;SDS011;67434;50.956;6.918;2023-03-01T04:43:47;11.95;;;6.05;;
49472;SDS011;67434;50.956;6.918;2023-03-01T04:46:15;18.90;;;6.13;;
49472;SDS011;67434;50.956;6.918;2023-03-01T04:48:42;11.63;;;6.45;;
49472;SDS011;67434;50.956;6.918;2023-03-01T04:51:09;14.32;;;7.05;;
49472;SDS011;67434;50.956;6.918;2023-03-01T04:53:38;14.43;;;6.72;;
49472;SDS011;67434;50.956;6.918;2023-03-01T04:56:04;11.82;;;6.10;;
49472;SDS011;67434;50.956;6.918;2023-03-01T04:58:30;11.90;;;6.07;;
49472;SDS011;67434;50.956;6.918;2023-03-01T05:00:56;11.10;;;6.40;;
49472;SDS011;67434;50.956;6.918;2023-03-01T05:03:40;11.95;;;6.63;;
49472;SDS011;67434;50.956;6.918;2023-03-01T05:06:06;15.07;;;6.70;;
49472;SDS011;67434;50.956;6.918;2023-03-01T05:08:31;13.13;;;6.65;;
49472;SDS011;67434;50.956;6.918;2023-03-01T05:10:59;12.88;;;6.22;;
49472;SDS011;67434;50.956;6.918;2023-03-01T05:13:24;17.08;;;7.03;;
49472;SDS011;67434;50.956;6.918;2023-03-01T05:15:53;12.25;;;6.18;;
49472;SDS011;67434;50.956;6.918;2023-03-01T05:18:39;12.55;;;6.15;;
49472;SDS011;67434;50.956;6.918;2023-03-01T05:21:23;12.35;;;6.35;;
49472;SDS011;67434;50.956;6.918;2023-03-01T05:23:49;14.00;;;6.30;;
49472;SDS011;67434;50.956;6.918;2023-03-01T05:26:16;12.05;;;6.45;;
49472;SDS011;67434;50.956;6.918;2023-03-01T05:28:43;13.25;;;6.10;;
49472;SDS011;67434;50.956;6.918;2023-03-01T05:31:27;13.75;;;7.10;;
49472;SDS011;67434;50.956;6.918;2023-03-01T05:33:53;13.63;;;6.90;;
49472;SDS011;67434;50.956;6.918;2023-03-01T05:36:18;11.20;;;6.30;;
49472;SDS011;67434;50.956;6.918;2023-03-01T05:38:44;12.77;;;5.80;;
49472;SDS011;67434;50.956;6.918;2023-03-01T05:41:13;12.43;;;6.70;;
49472;SDS011;67434;50.956;6.918;2023-03-01T05:43:39;14.85;;;6.68;;
49472;SDS011;67434;50.956;6.918;2023-03-01T05:46:27;12.05;;;6.53;;
49472;SDS011;67434;50.956;6.918;2023-03-01T05:48:54;18.45;;;7.03;;
49472;SDS011;67434;50.956;6.918;2023-03-01T05:51:20;14.23;;;6.78;;
49472;SDS011;67434;50.956;6.918;2023-03-01T05:53:47;12.65;;;6.72;;
49472;SDS011;67434;50.956;6.918;2023-03-01T05:56:12;16.92;;;6.63;;
49472;SDS011;67434;50.956;6.918;2023-03-01T05:58:37;16.77;;;7.53;;
49472;SDS011;67434;50.956;6.918;2023-03-01T06:01:03;14.32;;;6.85;;
49472;SDS011;67434;50.956;6.918;2023-03-01T06:03:29;12.35;;;6.25;;
49472;SDS011;67434;50.956;6.918;2023-03-01T06:05:57;12.60;;;6.55;;
49472;SDS011;67434;50.956;6.918;2023-03-01T06:08:23;13.70;;;6.45;;
49472;SDS011;67434;50.956;6.918;2023-03-01T06:10:51;12.93;;;7.25;;
49472;SDS011;67434;50.956;6.918;2023-03-01T06:13:16;13.07;;;6.65;;
49472;SDS011;67434;50.956;6.918;2023-03-01T06:15:42;14.50;;;6.50;;
49472;SDS011;67434;50.956;6.918;2023-03-01T06:18:26;15.27;;;6.70;;
49472;SDS011;67434;50.956;6.918;2023-03-01T06:20:54;13.30;;;6.70;;
49472;SDS011;67434;50.956;6.918;2023-03-01T06:23:21;14.13;;;6.07;;
49472;SDS011;67434;50.956;6.918;2023-03-01T06:25:46;11.40;;;6.88;;
49472;SDS011;67434;50.956;6.918;2023-03-01T06:28:30;14.90;;;7.30;;
49472;SDS011;67434;50.956;6.918;2023-03-01T06:30:56;12.48;;;6.72;;
49472;SDS011;67434;50.956;6.918;2023-03-01T06:33:40;10.52;;;6.25;;
49472;SDS011;67434;50.956;6.918;2023-03-01T06:36:24;13.38;;;6.53;;
49472;SDS011;67434;50.956;6.918;2023-03-01T06:38:49;13.98;;;6.28;;
49472;SDS011;67434;50.956;6.918;2023-03-01T06:41:33;16.38;;;7.07;;
49472;SDS011;67434;50.956;6.918;2023-03-01T06:43:59;17.08;;;7.95;;
49472;SDS011;67434;50.956;6.918;2023-03-01T06:46:24;13.55;;;6.68;;
49472;SDS011;67434;50.956;6.918;2023-03-01T06:48:50;17.15;;;8.43;;
49472;SDS011;67434;50.956;6.918;2023-03-01T06:51:15;18.45;;;8.05;;
49472;SDS011;67434;50.956;6.918;2023-03-01T06:53:41;13.90;;;6.88;;
49472;SDS011;67434;50.956;6.918;2023-03-01T06:56:06;16.92;;;8.20;;
49472;SDS011;67434;50.956;6.918;2023-03-01T06:58:31;13.40;;;7.30;;
49472;SDS011;67434;50.956;6.918;2023-03-01T07:00:57;15.15;;;7.53;;
49472;SDS011;67434;50.956;6.918;2023-03-01T07:03:22;17.00;;;7.93;;
49472;SDS011;67434;50.956;6.918;2023-03-01T07:05:48;18.30;;;8.35;;
49472;SDS011;67434;50.956;6.918;2023-03-01T07:08:14;16.73;;;7.28;;
49472;SDS011;67434;50.956;6.918;2023-03-01T07:10:40;14.65;;;8.23;;
49472;SDS011;67434;50.956;6.918;2023-03-01T07:13:05;16.58;;;7.38;;
49472;SDS011;67434;50.956;6.918;2023-03-01T07:15:32;14.82;;;7.43;;
49472;SDS011;67434;50.956;6.918;2023-03-01T07:17:57;12.55;;;6.55;;
49472;SDS011;67434;50.956;6.918;2023-03-01T07:20:35;14.60;;;7.10;;
49472;SDS011;67434;50.956;6.918;2023-03-01T07:23:00;14.70;;;7.40;;
49472;SDS011;67434;50.956;6.918;2023-03-01T07:25:25;11.38;;;6.80;;
49472;SDS011;67434;50.956;6.918;2023-03-01T07:27:51;16.30;;;7.35;;
49472;SDS011;67434;50.956;6.918;2023-03-01T07:30:17;14.95;;;7.60;;
49472;SDS011;67434;50.956;6.918;2023-03-01T07:32:43;19.30;;;8.73;;
49472;SDS011;67434;50.956;6.918;2023-03-01T07:35:10;16.42;;;7.80;;
49472;SDS011;67434;50.956;6.918;2023-03-01T07:37:36;14.10;;;8.00;;
49472;SDS011;67434;50.956;6.918;2023-03-01T07:40:20;15.27;;;8.07;;
49472;SDS011;67434;50.956;6.918;2023-03-01T07:42:45;17.27;;;7.55;;
49472;SDS011;67434;50.956;6.918;2023-03-01T07:45:14;14.45;;;8.15;;
49472;SDS011;67434;50.956;6.918;2023-03-01T07:47:39;15.98;;;7.43;;
49472;SDS011;67434;50.956;6.918;2023-03-01T07:50:05;14.57;;;7.95;;
49472;SDS011;67434;50.956;6.918;2023-03-01T07:52:31;20.45;;;9.43;;
49472;SDS011;67434;50.956;6.918;2023-03-01T07:54:57;13.68;;;7.35;;
49472;SDS011;67434;50.956;6.918;2023-03-01T07:57:23;15.65;;;7.82;;
49472;SDS011;67434;50.956;6.918;2023-03-01T07:59:51;12.65;;;7.43;;
49472;SDS011;67434;50.956;6.918;2023-03-01T08:02:16;18.77;;;8.10;;
49472;SDS011;67434;50.956;6.918;2023-03-01T08:04:42;16.23;;;8.35;;
49472;SDS011;67434;50.956;6.918;2023-03-01T08:07:07;19.70;;;8.30;;
49472;SDS011;67434;50.956;6.918;2023-03-01T08:09:36;15.27;;;7.85;;
49472;SDS011;67434;50.956;6.918;2023-03-01T08:12:21;15.57;;;8.00;;
49472;SDS011;67434;50.956;6.918;2023-03-01T08:14:46;15.48;;;7.43;;
49472;SDS011;67434;50.956;6.918;2023-03-01T08:17:13;17.92;;;8.02;;
49472;SDS011;67434;50.956;6.918;2023-03-01T08:19:39;19.50;;;8.85;;
49472;SDS011;67434;50.956;6.918;2023-03-01T08:22:04;17.38;;;9.50;;
49472;SDS011;67434;50.956;6.918;2023-03-01T08:24:29;18.63;;;8.73;;
49472;SDS011;67434;50.956;6.918;2023-03-01T08:26:55;15.65;;;8.02;;
49472;SDS011;67434;50.956;6.918;2023-03-01T08:29:21;20.48;;;7.88;;
49472;SDS011;67434;50.956;6.918;2023-03-01T08:31:47;26.00;;;10.05;;
49472;SDS011;67434;50.956;6.918;2023-03-01T08:34:14;13.52;;;7.43;;
49472;SDS011;67434;50.956;6.918;2023-03-01T08:36:42;15.70;;;8.02;;
49472;SDS011;67434;50.956;6.918;2023-03-01T08:39:09;18.83;;;8.18;;
49472;SDS011;67434;50.956;6.918;2023-03-01T08:41:36;18.58;;;8.35;;
49472;SDS011;67434;50.956;6.918;2023-03-01T08:44:02;17.92;;;8.00;;
49472;SDS011;67434;50.956;6.918;2023-03-01T08:46:29;17.88;;;8.32;;
49472;SDS011;67434;50.956;6.918;2023-03-01T08:48:57;18.55;;;8.73;;
49472;SDS011;67434;50.956;6.918;2023-03-01T08:51:22;13.30;;;7.70;;
49472;SDS011;67434;50.956;6.918;2023-03-01T08:53:48;17.05;;;8.10;;
49472;SDS011;67434;50.956;6.918;2023-03-01T08:56:14;17.52;;;8.70;;
49472;SDS011;67434;50.956;6.918;2023-03-01T08:58:45;19.10;;;8.88;;
49472;SDS011;67434;50.956;6.918;2023-03-01T09:01:13;17.13;;;7.70;;
49472;SDS011;67434;50.956;6.918;2023-03-01T09:03:40;18.83;;;8.20;;
49472;SDS011;67434;50.956;6.918;2023-03-01T09:06:11;16.00;;;6.50;;
49472;SDS011;67434;50.956;6.918;2023-03-01T09:08:37;10.52;;;6.28;;
49472;SDS011;67434;50.956;6.918;2023-03-01T09:11:04;14.70;;;8.07;;
49472;SDS011;67434;50.956;6.918;2023-03-01T09:13:31;12.63;;;7.05;;
49472;SDS011;67434;50.956;6.918;2023-03-01T09:16:01;14.45;;;7.85;;
49472;SDS011;67434;50.956;6.918;2023-03-01T09:18:28;13.02;;;6.75;;
49472;SDS011;67434;50.956;6.918;2023-03-01T09:21:00;15.23;;;8.35;;
49472;SDS011;67434;50.956;6.918;2023-03-01T09:23:48;16.10;;;7.35;;
49472;SDS011;67434;50.956;6.918;2023-03-01T09:26:18;9.82;;;6.18;;
49472;SDS011;67434;50.956;6.918;2023-03-01T09:28:46;15.07;;;7.45;;
49472;SDS011;67434;50.956;6.918;2023-03-01T09:31:12;16.00;;;7.43;;
49472;SDS011;67434;50.956;6.918;2023-03-01T09:33:40;14.75;;;7.25;;
49472;SDS011;67434;50.956;6.918;2023-03-01T09:36:07;15.27;;;6.82;;
49472;SDS011;67434;50.956;6.918;2023-03-01T09:38:35;11.88;;;6.60;;
49472;SDS011;67434;50.956;6.918;2023-03-01T09:41:01;18.35;;;8.68;;
49472;SDS011;67434;50.956;6.918;2023-03-01T09:43:42;12.50;;;7.38;;
49472;SDS011;67434;50.956;6.918;2023-03-01T09:46:14;11.80;;;6.72;;
49472;SDS011;67434;50.956;6.918;2023-03-01T09:49:02;11.52;;;6.25;;
49472;SDS011;67434;50.956;6.918;2023-03-01T09:51:36;13.70;;;7.25;;
49472;SDS011;67434;50.956;6.918;2023-03-01T09:54:02;16.77;;;6.85;;
49472;SDS011;67434;50.956;6.918;2023-03-01T09:56:36;16.02;;;7.68;;
49472;SDS011;67434;50.956;6.918;2023-03-01T09:59:17;15.57;;;6.57;;
49472;SDS011;67434;50.956;6.918;2023-03-01T10:02:00;17.15;;;6.95;;
49472;SDS011;67434;50.956;6.918;2023-03-01T10:04:51;13.88;;;7.32;;
49472;SDS011;67434;50.956;6.918;2023-03-01T10:07:50;13.07;;;6.45;;
49472;SDS011;67434;50.956;6.918;2023-03-01T10:10:47;14.50;;;6.82;;
49472;SDS011;67434;50.956;6.918;2023-03-01T10:13:18;14.43;;;6.57;;
49472;SDS011;67434;50.956;6.918;2023-03-01T10:15:50;14.80;;;6.88;;
49472;SDS011;67434;50.956;6.918;2023-03-01T10:18:21;13.27;;;6.95;;
49472;SDS011;67434;50.956;6.918;2023-03-01T10:23:36;12.15;;;6.70;;
49472;SDS011;67434;50.956;6.918;2023-03-01T10:26:08;14.15;;;6.60;;
49472;SDS011;67434;50.956;6.918;2023-03-01T10:29:03;10.30;;;6.60;;
49472;SDS011;67434;50.956;6.918;2023-03-01T10:36:52;14.70;;;6.50;;
49472;SDS011;67434;50.956;6.918;2023-03-01T10:39:23;12.73;;;7.00;;
49472;SDS011;67434;50.956;6.918;2023-03-01T10:44:47;10.40;;;6.55;;
49472;SDS011;67434;50.956;6.918;2023-03-01T10:47:15;10.48;;;5.97;;
49472;SDS011;67434;50.956;6.918;2023-03-01T10:49:55;12.45;;;6.85;;
49472;SDS011;67434;50.956;6.918;2023-03-01T10:52:35;17.10;;;7.57;;
49472;SDS011;67434;50.956;6.918;2023-03-01T10:55:04;13.93;;;7.18;;
49472;SDS011;67434;50.956;6.918;2023-03-01T10:57:49;11.80;;;6.13;;
49472;SDS011;67434;50.956;6.918;2023-03-01T11:05:29;14.82;;;6.72;;
49472;SDS011;67434;50.956;6.918;2023-03-01T11:07:58;13.77;;;6.93;;
49472;SDS011;67434;50.956;6.918;2023-03-01T11:10:26;12.65;;;7.60;;
49472;SDS011;67434;50.956;6.918;2023-03-01T11:13:05;13.05;;;7.18;;
49472;SDS011;67434;50.956;6.918;2023-03-01T11:15:42;15.60;;;6.90;;
49472;SDS011;67434;50.956;6.918;2023-03-01T11:18:26;13.18;;;7.63;;
49472;SDS011;67434;50.956;6.918;2023-03-01T11:20:54;17.30;;;7.22;;
49472;SDS011;67434;50.956;6.918;2023-03-01T11:23:21;14.90;;;8.00;;
49472;SDS011;67434;50.956;6.918;2023-03-01T11:25:56;17.98;;;6.78;;
49472;SDS011;67434;50.956;6.918;2023-03-01T11:28:25;10.43;;;6.10;;
49472;SDS011;67434;50.956;6.918;2023-03-01T11:33:56;13.77;;;6.53;;
49472;SDS011;67434;50.956;6.918;2023-03-01T11:39:27;10.30;;;6.70;;
49472;SDS011;67434;50.956;6.918;2023-03-01T11:42:03;14.13;;;7.13;;
49472;SDS011;67434;50.956;6.918;2023-03-01T11:44:37;11.85;;;6.85;;
49472;SDS011;67434;50.956;6.918;2023-03-01T12:01:39;13.05;;;6.45;;
49472;SDS011;67434;50.956;6.918;2023-03-01T12:26:51;12.80;;;6.63;;
49472;SDS011;67434;50.956;6.918;2023-03-01T12:32:39;11.85;;;6.80;;
49472;SDS011;67434;50.956;6.918;2023-03-01T12:43:41;11.05;;;6.95;;
49472;SDS011;67434;50.956;6.918;2023-03-01T12:46:38;11.95;;;6.32;;
49472;SDS011;67434;50.956;6.918;2023-03-01T12:49:24;12.50;;;6.00;;
49472;SDS011;67434;50.956;6.918;2023-03-01T12:54:36;12.07;;;6.45;;
49472;SDS011;67434;50.956;6.918;2023-03-01T13:09:04;9.23;;;5.72;;
49472;SDS011;67434;50.956;6.918;2023-03-01T13:11:35;12.05;;;6.95;;
49472;SDS011;67434;50.956;6.918;2023-03-01T13:14:34;13.02;;;6.82;;
49472;SDS011;67434;50.956;6.918;2023-03-01T13:16:48;10.25;;;6.10;;
49472;SDS011;67434;50.956;6.918;2023-03-01T13:21:43;11.70;;;6.55;;
49472;SDS011;67434;50.956;6.918;2023-03-01T13:32:24;13.57;;;6.60;;
49472;SDS011;67434;50.956;6.918;2023-03-01T13:35:03;15.52;;;7.03;;
49472;SDS011;67434;50.956;6.918;2023-03-01T13:37:33;11.32;;;6.75;;
49472;SDS011;67434;50.956;6.918;2023-03-01T13:42:48;10.13;;;5.88;;
49472;SDS011;67434;50.956;6.918;2023-03-01T13:45:24;10.57;;;6.20;;
49472;SDS011;67434;50.956;6.918;2023-03-01T13:48:20;11.68;;;6.40;;
49472;SDS011;67434;50.956;6.918;2023-03-01T13:50:59;12.63;;;6.93;;
49472;SDS011;67434;50.956;6.918;2023-03-01T13:53:31;11.27;;;6.38;;
49472;SDS011;67434;50.956;6.918;2023-03-01T13:56:02;10.98;;;5.65;;
49472;SDS011;67434;50.956;6.918;2023-03-01T13:58:33;10.13;;;5.32;;
49472;SDS011;67434;50.956;6.918;2023-03-01T14:01:20;9.63;;;5.63;;
49472;SDS011;67434;50.956;6.918;2023-03-01T14:04:14;7.63;;;5.53;;
49472;SDS011;67434;50.956;6.918;2023-03-01T14:07:09;10.75;;;5.40;;
49472;SDS011;67434;50.956;6.918;2023-03-01T14:09:35;14.07;;;6.32;;
49472;SDS011;67434;50.956;6.918;2023-03-01T14:12:12;8.82;;;5.93;;
49472;SDS011;67434;50.956;6.918;2023-03-01T14:20:28;15.93;;;6.72;;
49472;SDS011;67434;50.956;6.918;2023-03-01T14:23:14;9.82;;;5.45;;
49472;SDS011;67434;50.956;6.918;2023-03-01T14:25:46;8.05;;;4.60;;
49472;SDS011;67434;50.956;6.918;2023-03-01T14:28:15;10.55;;;5.65;;
49472;SDS011;67434;50.956;6.918;2023-03-01T14:30:55;10.13;;;5.60;;
49472;SDS011;67434;50.956;6.918;2023-03-01T14:33:24;8.95;;;5.10;;
49472;SDS011;67434;50.956;6.918;2023-03-01T14:35:52;8.75;;;5.88;;
49472;SDS011;67434;50.956;6.918;2023-03-01T14:38:23;10.13;;;6.03;;
49472;SDS011;67434;50.956;6.918;2023-03-01T14:40:54;14.30;;;6.35;;
49472;SDS011;67434;50.956;6.918;2023-03-01T14:43:23;11.70;;;6.45;;
49472;SDS011;67434;50.956;6.918;2023-03-01T14:45:51;11.63;;;6.22;;
49472;SDS011;67434;50.956;6.918;2023-03-01T14:48:16;11.07;;;6.55;;
49472;SDS011;67434;50.956;6.918;2023-03-01T14:50:43;12.50;;;5.85;;
49472;SDS011;67434;50.956;6.918;2023-03-01T14:53:19;10.38;;;5.85;;
49472;SDS011;67434;50.956;6.918;2023-03-01T14:55:59;10.68;;;5.75;;
49472;SDS011;67434;50.956;6.918;2023-03-01T14:58:31;13.18;;;5.50;;
49472;SDS011;67434;50.956;6.918;2023-03-01T15:00:59;12.27;;;5.85;;
49472;SDS011;67434;50.956;6.918;2023-03-01T15:06:03;11.05;;;5.68;;
49472;SDS011;67434;50.956;6.918;2023-03-01T15:08:31;10.30;;;6.10;;
49472;SDS011;67434;50.956;6.918;2023-03-01T15:13:43;14.55;;;6.50;;
49472;SDS011;67434;50.956;6.918;2023-03-01T15:18:45;10.88;;;6.82;;
49472;SDS011;67434;50.956;6.918;2023-03-01T15:21:23;10.45;;;5.53;;
49472;SDS011;67434;50.956;6.918;2023-03-01T15:23:59;11.05;;;5.78;;
49472;SDS011;67434;50.956;6.918;2023-03-01T15:26:45;12.27;;;6.18;;
49472;SDS011;67434;50.956;6.918;2023-03-01T15:29:19;14.07;;;6.50;;
49472;SDS011;67434;50.956;6.918;2023-03-01T15:31:54;12.30;;;6.10;;
49472;SDS011;67434;50.956;6.918;2023-03-01T15:34:48;12.75;;;6.75;;
49472;SDS011;67434;50.956;6.918;2023-03-01T15:42:50;8.65;;;6.05;;
49472;SDS011;67434;50.956;6.918;2023-03-01T15:45:22;8.27;;;5.45;;
49472;SDS011;67434;50.956;6.918;2023-03-01T15:47:59;12.38;;;5.65;;
49472;SDS011;67434;50.956;6.918;2023-03-01T15:50:32;15.15;;;7.22;;
49472;SDS011;67434;50.956;6.918;2023-03-01T15:53:00;11.05;;;6.40;;
49472;SDS011;67434;50.956;6.918;2023-03-01T15:55:30;16.20;;;7.85;;
49472;SDS011;67434;50.956;6.918;2023-03-01T16:00:40;14.50;;;6.85;;
49472;SDS011;67434;50.956;6.918;2023-03-01T16:03:06;9.02;;;5.53;;
49472;SDS011;67434;50.956;6.918;2023-03-01T16:05:34;12.60;;;5.78;;
49472;SDS011;67434;50.956;6.918;2023-03-01T16:08:01;11.20;;;6.45;;
49472;SDS011;67434;50.956;6.918;2023-03-01T16:10:27;10.55;;;5.80;;
49472;SDS011;67434;50.956;6.918;2023-03-01T16:12:53;10.50;;;5.72;;
49472;SDS011;67434;50.956;6.918;2023-03-01T16:15:26;14.00;;;6.35;;
49472;SDS011;67434;50.956;6.918;2023-03-01T16:17:55;9.15;;;4.65;;
49472;SDS011;67434;50.956;6.918;2023-03-01T16:20:23;9.45;;;5.80;;
49472;SDS011;67434;50.956;6.918;2023-03-01T16:22:49;11.20;;;5.35;;
49472;SDS011;67434;50.956;6.918;2023-03-01T16:25:15;13.88;;;5.28;;
49472;SDS011;67434;50.956;6.918;2023-03-01T16:27:42;13.77;;;5.93;;
49472;SDS011;67434;50.956;6.918;2023-03-01T16:30:32;9.63;;;5.60;;
49472;SDS011;67434;50.956;6.918;2023-03-01T16:32:58;10.23;;;5.43;;
49472;SDS011;67434;50.956;6.918;2023-03-01T16:35:24;12.30;;;5.38;;
49472;SDS011;67434;50.956;6.918;2023-03-01T16:37:49;17.83;;;7.07;;
49472;SDS011;67434;50.956;6.918;2023-03-01T16:42:43;8.60;;;5.22;;
49472;SDS011;67434;50.956;6.918;2023-03-01T16:45:08;9.90;;;5.32;;
49472;SDS011;67434;50.956;6.918;2023-03-01T16:47:34;11.45;;;5.25;;
49472;SDS011;67434;50.956;6.918;2023-03-01T16:50:00;14.25;;;5.10;;
49472;SDS011;67434;50.956;6.918;2023-03-01T16:52:26;8.10;;;4.00;;
49472;SDS011;67434;50.956;6.918;2023-03-01T16:54:51;9.20;;;4.88;;
49472;SDS011;67434;50.956;6.918;2023-03-01T16:57:17;9.60;;;4.95;;
49472;SDS011;67434;50.956;6.918;2023-03-01T16:59:43;12.80;;;5.95;;
49472;SDS011;67434;50.956;6.918;2023-03-01T17:02:09;9.80;;;4.63;;
49472;SDS011;67434;50.956;6.918;2023-03-01T17:04:37;9.70;;;5.40;;
49472;SDS011;67434;50.956;6.918;2023-03-01T17:07:03;10.77;;;5.07;;
49472;SDS011;67434;50.956;6.918;2023-03-01T17:09:28;10.10;;;5.75;;
49472;SDS011;67434;50.956;6.918;2023-03-01T17:11:54;12.07;;;5.75;;